createdAt,value
2022-11-07T00:01:50.044Z,99652.47
2022-11-07T00:04:17.659Z,99652.06
2022-11-07T00:06:46.660Z,99660.53
2022-11-07T00:09:14.112Z,99661.38
2022-11-07T00:11:41.159Z,99655.34
2022-11-07T00:14:08.171Z,99660.97
2022-11-07T00:16:36.880Z,99662.41
2022-11-07T00:19:04.468Z,99661.16
2022-11-07T00:21:31.767Z,99663.22
2022-11-07T00:24:00.554Z,99667.34
2022-11-07T00:26:29.860Z,99665.50
2022-11-07T00:28:56.899Z,99664.06
2022-11-07T00:31:23.991Z,99679.84
2022-11-07T00:33:51.299Z,99685.22
2022-11-07T00:36:21.905Z,99686.06
2022-11-07T00:38:50.209Z,99692.72
2022-11-07T00:41:20.735Z,99697.69
2022-11-07T00:43:48.777Z,99695.81
2022-11-07T00:46:17.629Z,99698.94
2022-11-07T00:48:47.391Z,99691.47
2022-11-07T00:51:17.642Z,99698.28
2022-11-07T00:53:45.733Z,99702.06
2022-11-07T00:56:18.889Z,99700.78
2022-11-07T00:58:48.329Z,99696.88
2022-11-07T01:01:19.978Z,99697.47
2022-11-07T01:03:48.860Z,99697.47
2022-11-07T01:06:22.802Z,99692.47
2022-11-07T01:08:54.326Z,99696.81
2022-11-07T01:11:22.538Z,99683.97
2022-11-07T01:13:55.589Z,99690.00
2022-11-07T01:16:23.377Z,99697.44
2022-11-07T01:18:50.737Z,99687.50
2022-11-07T01:21:20.750Z,99683.13
2022-11-07T01:23:47.753Z,99687.47
2022-11-07T01:26:16.557Z,99690.34
2022-11-07T01:28:43.743Z,99689.31
2022-11-07T01:31:16.820Z,99684.31
2022-11-07T01:33:46.873Z,99689.06
2022-11-07T01:36:17.430Z,99687.44
2022-11-07T01:38:47.107Z,99683.88
2022-11-07T01:41:18.738Z,99683.25
2022-11-07T01:43:49.295Z,99688.06
2022-11-07T01:46:19.123Z,99687.44
2022-11-07T01:48:59.048Z,99698.63
2022-11-07T01:51:29.686Z,99699.03
2022-11-07T01:53:57.010Z,99696.13
2022-11-07T01:56:30.631Z,99707.53
2022-11-07T01:59:00.125Z,99690.69
2022-11-07T02:01:28.952Z,99697.94
2022-11-07T02:03:58.970Z,99693.97
2022-11-07T02:06:36.755Z,99689.00
2022-11-07T02:09:04.281Z,99682.31
2022-11-07T02:11:31.652Z,99693.53
2022-11-07T02:13:58.744Z,99689.34
2022-11-07T02:16:25.946Z,99693.50
2022-11-07T02:18:55.669Z,99689.75
2022-11-07T02:21:38.403Z,99695.16
2022-11-07T02:24:30.344Z,99697.88
2022-11-07T02:27:11.837Z,99691.00
2022-11-07T02:29:47.939Z,99688.50
2022-11-07T02:32:20.599Z,99686.28
2022-11-07T02:35:00.399Z,99687.34
2022-11-07T02:37:40.026Z,99689.84
2022-11-07T02:40:10.832Z,99676.78
2022-11-07T02:42:40.027Z,99682.59
2022-11-07T02:45:08.294Z,99687.84
2022-11-07T02:47:35.151Z,99687.41
2022-11-07T02:50:02.059Z,99679.94
2022-11-07T02:52:28.926Z,99684.94
2022-11-07T02:54:55.837Z,99680.97
2022-11-07T02:57:24.185Z,99683.72
2022-11-07T02:59:51.087Z,99680.81
2022-11-07T03:02:18.330Z,99678.31
2022-11-07T03:04:49.093Z,99678.09
2022-11-07T03:07:16.817Z,99679.75
2022-11-07T03:09:43.989Z,99674.13
2022-11-07T03:12:11.050Z,99674.72
2022-11-07T03:14:39.507Z,99682.38
2022-11-07T03:17:06.336Z,99680.75
2022-11-07T03:19:33.228Z,99682.16
2022-11-07T03:22:00.465Z,99691.06
2022-11-07T03:24:27.995Z,99683.78
2022-11-07T03:26:55.321Z,99694.38
2022-11-07T03:29:25.537Z,99683.53
2022-11-07T03:31:53.816Z,99685.56
2022-11-07T03:34:21.145Z,99690.97
2022-11-07T03:36:48.045Z,99693.22
2022-11-07T03:39:14.886Z,99697.16
2022-11-07T03:41:41.727Z,99703.81
2022-11-07T03:44:08.629Z,99696.75
2022-11-07T03:46:35.760Z,99688.41
2022-11-07T03:49:04.003Z,99711.50
2022-11-07T03:51:31.257Z,99711.06
2022-11-07T03:53:58.136Z,99712.50
2022-11-07T03:56:25.291Z,99705.44
2022-11-07T03:58:52.314Z,99709.19
2022-11-07T04:01:19.733Z,99717.06
2022-11-07T04:03:46.995Z,99721.88
2022-11-07T04:06:15.607Z,99717.69
2022-11-07T04:08:42.834Z,99722.25
2022-11-07T04:11:10.314Z,99721.25
2022-11-07T04:13:38.193Z,99727.25
2022-11-07T04:16:05.593Z,99734.09
2022-11-07T04:18:33.174Z,99728.91
2022-11-07T04:21:00.046Z,99729.50
2022-11-07T04:23:28.194Z,99743.22
2022-11-07T04:25:55.607Z,99739.91
2022-11-07T04:28:22.769Z,99735.72
2022-11-07T04:30:49.941Z,99740.31
2022-11-07T04:33:17.539Z,99743.66
2022-11-07T04:35:44.853Z,99741.16
2022-11-07T04:38:11.801Z,99738.81
2022-11-07T04:40:40.306Z,99744.84
2022-11-07T04:43:07.494Z,99745.44
2022-11-07T04:45:34.694Z,99743.56
2022-11-07T04:48:01.750Z,99754.38
2022-11-07T04:50:29.125Z,99742.53
2022-11-07T04:52:56.295Z,99752.31
2022-11-07T04:55:26.168Z,99757.72
2022-11-07T04:57:54.630Z,99744.41
2022-11-07T05:00:21.699Z,99743.78
2022-11-07T05:02:50.355Z,99752.97
2022-11-07T05:05:25.787Z,99756.69
2022-11-07T05:07:52.971Z,99745.88
2022-11-07T05:10:22.748Z,99748.34
2022-11-07T05:14:39.344Z,99752.75
2022-11-07T05:17:06.634Z,99754.88
2022-11-07T05:19:33.517Z,99759.44
2022-11-07T05:22:00.683Z,99757.38
2022-11-07T05:24:27.492Z,99753.19
2022-11-07T05:26:54.418Z,99761.94
2022-11-07T05:29:22.515Z,99763.38
2022-11-07T05:31:49.310Z,99765.63
2022-11-07T05:34:16.270Z,99763.56
2022-11-07T05:36:43.431Z,99759.19
2022-11-07T05:39:10.210Z,99754.66
2022-11-07T05:41:37.015Z,99753.63
2022-11-07T05:44:04.528Z,99756.59
2022-11-07T05:46:32.775Z,99755.75
2022-11-07T05:49:01.067Z,99748.28
2022-11-07T05:51:28.101Z,99756.38
2022-11-07T05:53:58.501Z,99756.59
2022-11-07T05:56:25.290Z,99755.41
2022-11-07T05:58:52.045Z,99757.13
2022-11-07T06:01:19.021Z,99758.97
2022-11-07T06:03:47.168Z,99754.63
2022-11-07T06:06:13.875Z,99755.47
2022-11-07T06:08:40.880Z,99756.06
2022-11-07T06:11:07.784Z,99761.09
2022-11-07T06:13:34.555Z,99759.66
2022-11-07T06:16:01.459Z,99763.56
2022-11-07T06:18:28.302Z,99764.84
2022-11-07T06:20:56.434Z,99766.91
2022-11-07T06:23:26.409Z,99770.03
2022-11-07T06:25:53.337Z,99769.44
2022-11-07T06:37:20.489Z,99781.22
2022-11-07T06:39:47.780Z,99783.28
2022-11-07T06:42:14.542Z,99781.41
2022-11-07T06:44:41.513Z,99773.91
2022-11-07T06:47:08.229Z,99778.69
2022-11-07T06:49:35.015Z,99785.75
2022-11-07T06:56:25.587Z,99786.34
2022-11-07T06:58:52.507Z,99792.31
2022-11-07T07:01:19.299Z,99790.69
2022-11-07T07:03:46.440Z,99788.97
2022-11-07T07:06:16.125Z,99781.84
2022-11-07T07:08:44.294Z,99795.75
2022-11-07T07:15:55.144Z,99808.19
2022-11-07T07:18:23.619Z,99819.41
2022-11-07T07:21:16.365Z,99815.28
2022-11-07T07:23:43.254Z,99819.03
2022-11-07T07:26:14.171Z,99818.31
2022-11-07T07:32:52.538Z,99820.91
2022-11-07T07:35:19.459Z,99825.44
2022-11-07T07:37:49.896Z,99824.81
2022-11-07T07:40:16.823Z,99817.13
2022-11-07T07:42:44.787Z,99817.50
2022-11-07T07:45:14.675Z,99817.88
2022-11-07T07:47:42.638Z,99824.19
2022-11-07T08:04:06.004Z,99829.97
2022-11-07T08:06:33.328Z,99829.69
2022-11-07T08:09:03.267Z,99827.44
2022-11-07T08:11:30.834Z,99827.75
2022-11-07T08:14:01.209Z,99837.84
2022-11-07T08:16:30.520Z,99848.13
2022-11-07T08:19:15.172Z,99848.72
2022-11-07T08:21:44.115Z,99851.09
2022-11-07T08:24:10.872Z,99841.50
2022-11-07T08:26:38.080Z,99846.06
2022-11-07T08:29:05.476Z,99844.72
2022-11-07T08:31:32.562Z,99847.66
2022-11-07T08:34:00.105Z,99846.75
2022-11-07T08:36:28.796Z,99849.34
2022-11-07T08:38:56.077Z,99842.22
2022-11-07T08:41:22.873Z,99844.41
2022-11-07T08:43:50.016Z,99851.13
2022-11-07T08:46:16.744Z,99844.94
2022-11-07T08:48:43.916Z,99842.84
2022-11-07T08:51:10.663Z,99847.38
2022-11-07T08:53:38.958Z,99837.22
2022-11-07T08:56:09.043Z,99844.66
2022-11-07T08:58:37.256Z,99846.75
2022-11-07T09:01:06.399Z,99852.63
2022-11-07T09:03:46.253Z,99848.00
2022-11-07T09:06:14.629Z,99855.28
2022-11-07T09:08:43.381Z,99851.59
2022-11-07T09:11:10.926Z,99854.31
2022-11-07T09:13:37.815Z,99859.25
2022-11-07T09:16:08.382Z,99861.81
2022-11-07T09:18:35.358Z,99860.31
2022-11-07T09:21:02.121Z,99852.25
2022-11-07T09:23:29.624Z,99855.06
2022-11-07T09:26:00.126Z,99860.41
2022-11-07T09:28:27.581Z,99860.25
2022-11-07T09:30:56.054Z,99856.19
2022-11-07T09:33:23.884Z,99870.47
2022-11-07T09:35:51.656Z,99867.38
2022-11-07T09:38:18.503Z,99869.03
2022-11-07T09:40:55.935Z,99867.81
2022-11-07T09:43:47.404Z,99864.19
2022-11-07T09:46:33.130Z,99855.25
2022-11-07T09:49:13.637Z,99855.34
2022-11-07T09:51:47.515Z,99856.91
2022-11-07T09:54:21.400Z,99859.97
2022-11-07T09:56:48.282Z,99864.81
2022-11-07T09:59:24.745Z,99861.84
2022-11-07T10:01:52.073Z,99856.34
2022-11-07T10:04:26.629Z,99864.03
2022-11-07T10:07:04.078Z,99850.91
2022-11-07T10:09:44.145Z,99860.75
2022-11-07T10:12:34.148Z,99855.34
2022-11-07T10:15:17.907Z,99857.25
2022-11-07T10:17:59.346Z,99851.78
2022-11-07T10:20:49.206Z,99853.19
2022-11-07T10:23:40.371Z,99850.59
2022-11-07T10:26:10.856Z,99843.72
2022-11-07T10:28:46.345Z,99848.94
2022-11-07T10:31:16.029Z,99854.03
2022-11-07T10:33:53.123Z,99851.94
2022-11-07T10:36:27.893Z,99844.72
2022-11-07T10:38:55.019Z,99848.84
2022-11-07T10:45:15.698Z,99843.31
2022-11-07T10:47:56.588Z,99831.81
2022-11-07T10:50:24.796Z,99833.13
2022-11-07T10:52:55.103Z,99829.84
2022-11-07T10:55:23.864Z,99829.47
2022-11-07T10:57:57.612Z,99833.03
2022-11-07T11:00:27.234Z,99837.03
2022-11-07T11:03:29.025Z,99840.72
2022-11-07T11:06:21.427Z,99826.97
2022-11-07T11:08:52.496Z,99830.75
2022-11-07T11:11:30.717Z,99830.28
2022-11-07T11:14:09.688Z,99834.16
2022-11-07T11:16:40.063Z,99830.84
2022-11-07T11:19:22.214Z,99827.16
2022-11-07T11:21:53.306Z,99827.75
2022-11-07T11:24:31.908Z,99821.47
2022-11-07T11:27:04.769Z,99823.22
2022-11-07T11:29:42.491Z,99825.25
2022-11-07T11:32:21.257Z,99831.66
2022-11-07T11:35:07.918Z,99822.88
2022-11-07T11:37:42.519Z,99826.22
2022-11-07T11:40:18.251Z,99821.81
2022-11-07T11:42:59.785Z,99816.91
2022-11-07T11:45:41.243Z,99822.34
2022-11-07T11:48:28.678Z,99813.91
2022-11-07T11:51:03.689Z,99816.25
2022-11-07T11:53:31.127Z,99816.47
2022-11-07T11:56:24.159Z,99820.59
2022-11-07T11:59:14.638Z,99815.06
2022-11-07T12:01:56.962Z,99810.13
2022-11-07T12:04:44.058Z,99812.53
2022-11-07T12:07:38.697Z,99813.34
2022-11-07T12:10:16.916Z,99813.41
2022-11-07T12:13:01.586Z,99813.34
2022-11-07T12:15:44.544Z,99816.91
2022-11-07T12:18:24.376Z,99811.22
2022-11-07T12:21:08.654Z,99811.97
2022-11-07T12:24:02.092Z,99816.31
2022-11-07T12:26:37.954Z,99813.72
2022-11-07T12:29:27.448Z,99812.63
2022-11-07T12:32:13.308Z,99798.47
2022-11-07T12:35:16.514Z,99808.16
2022-11-07T12:38:57.786Z,99791.16
2022-11-07T12:41:58.943Z,99795.16
2022-11-07T12:45:00.963Z,99799.66
2022-11-07T12:47:54.165Z,99795.66
2022-11-07T12:50:39.685Z,99795.88
2022-11-07T12:53:40.870Z,99793.88
2022-11-07T12:56:15.001Z,99791.00
2022-11-07T12:58:47.140Z,99792.03
2022-11-07T13:01:20.138Z,99788.22
2022-11-07T13:04:10.846Z,99788.81
2022-11-07T13:06:48.685Z,99784.50
2022-11-07T13:09:31.237Z,99784.28
2022-11-07T13:12:11.169Z,99788.78
2022-11-07T13:14:43.233Z,99787.63
2022-11-07T13:17:17.438Z,99784.25
2022-11-07T13:19:57.488Z,99786.16
2022-11-07T13:22:33.931Z,99777.72
2022-11-07T13:25:24.166Z,99778.81
2022-11-07T13:28:23.534Z,99779.31
2022-11-07T13:31:02.300Z,99773.47
2022-11-07T13:33:36.632Z,99770.69
2022-11-07T13:36:25.260Z,99766.09
2022-11-07T13:39:01.162Z,99766.53
2022-11-07T13:41:43.748Z,99763.00
2022-11-07T13:44:27.637Z,99758.22
2022-11-07T13:47:01.175Z,99759.88
2022-11-07T13:49:43.041Z,99760.69
2022-11-07T13:52:19.714Z,99768.06
2022-11-07T13:54:58.809Z,99769.22
2022-11-07T13:57:34.757Z,99767.13
2022-11-07T14:00:10.732Z,99770.97
2022-11-07T14:02:52.784Z,99777.53
2022-11-07T14:05:25.304Z,99770.72
2022-11-07T14:08:02.547Z,99773.66
2022-11-07T14:10:46.949Z,99777.19
2022-11-07T14:13:23.018Z,99777.44
2022-11-07T14:15:55.304Z,99788.19
2022-11-07T14:18:28.422Z,99786.34
2022-11-07T14:20:58.704Z,99788.38
2022-11-07T14:23:28.543Z,99796.22
2022-11-07T14:25:59.903Z,99792.69
2022-11-07T14:28:35.251Z,99796.00
2022-11-07T14:31:05.644Z,99795.19
2022-11-07T14:33:48.010Z,99800.63
2022-11-07T14:36:18.011Z,99799.47
2022-11-07T14:40:56.556Z,99802.13
2022-11-07T14:41:42.914Z,99797.97
2022-11-07T14:44:20.589Z,99791.06
2022-11-07T14:46:50.016Z,99794.03
2022-11-07T14:49:26.765Z,99788.63
2022-11-07T14:51:56.039Z,99794.66
2022-11-07T14:54:31.578Z,99781.03
2022-11-07T14:57:00.830Z,99792.59
2022-11-07T14:59:28.210Z,99785.50
2022-11-07T15:02:05.049Z,99783.75
2022-11-07T15:04:41.902Z,99788.97
2022-11-07T15:07:11.658Z,99784.50
2022-11-07T15:09:39.079Z,99784.38
2022-11-07T15:12:15.898Z,99781.50
2022-11-07T15:14:59.246Z,99793.81
2022-11-07T15:17:27.271Z,99785.41
2022-11-07T15:20:05.485Z,99794.56
2022-11-07T15:22:38.574Z,99788.81
2022-11-07T15:25:32.657Z,99788.53
2022-11-07T15:28:15.244Z,99777.69
2022-11-07T15:30:44.896Z,99789.16
2022-11-07T15:33:15.611Z,99782.44
2022-11-07T15:36:01.102Z,99785.03
2022-11-07T15:38:29.870Z,99788.09
2022-11-07T15:40:56.772Z,99794.59
2022-11-07T16:06:46.333Z,99796.72
2022-11-07T16:09:24.618Z,99796.03
2022-11-07T16:11:51.689Z,99791.75
2022-11-07T16:17:15.441Z,99792.94
2022-11-07T16:19:43.017Z,99797.19
2022-11-07T16:22:15.358Z,99790.94
2022-11-07T16:24:52.032Z,99797.91
2022-11-07T16:27:28.487Z,99796.84
2022-11-07T16:29:58.229Z,99792.47
2022-11-07T16:32:25.171Z,99792.38
2022-11-07T16:34:51.889Z,99791.53
2022-11-07T16:37:20.057Z,99793.53
2022-11-07T16:39:59.384Z,99792.47
2022-11-07T16:42:26.810Z,99799.22
2022-11-07T16:45:13.856Z,99800.59
2022-11-07T16:51:22.914Z,99796.88
2022-11-07T16:53:55.301Z,99789.66
2022-11-07T16:56:26.687Z,99793.91
2022-11-07T16:58:54.053Z,99793.44
2022-11-07T17:01:28.476Z,99798.28
2022-11-07T17:03:59.070Z,99807.25
2022-11-07T17:06:34.279Z,99807.81
2022-11-07T17:09:12.146Z,99799.19
2022-11-07T17:11:40.466Z,99802.22
2022-11-07T17:14:07.535Z,99807.53
2022-11-07T17:16:35.480Z,99800.88
2022-11-07T17:19:15.136Z,99804.81
2022-11-07T17:21:54.565Z,99803.13
2022-11-07T17:24:55.458Z,99798.31
2022-11-07T17:27:32.105Z,99803.94
2022-11-07T17:30:02.011Z,99804.06
2022-11-07T17:32:30.271Z,99800.75
2022-11-07T17:35:25.576Z,99809.63
2022-11-07T17:37:44.545Z,99804.59
2022-11-07T17:40:25.434Z,99809.09
2022-11-07T17:42:52.655Z,99808.44
2022-11-07T17:45:19.838Z,99805.03
2022-11-07T17:52:21.209Z,99804.34
2022-11-07T18:00:48.187Z,99807.63
2022-11-07T18:12:05.772Z,99808.03
2022-11-07T18:14:52.107Z,99812.53
2022-11-07T18:17:20.661Z,99816.91
2022-11-07T18:19:48.041Z,99813.38
2022-11-07T18:22:21.165Z,99812.53
2022-11-07T18:24:48.324Z,99807.56
2022-11-07T18:28:40.258Z,99807.56
2022-11-07T18:31:11.134Z,99806.25
2022-11-07T18:33:43.456Z,99797.91
2022-11-07T18:36:14.491Z,99805.00
2022-11-07T18:38:56.349Z,99814.09
2022-11-07T18:41:23.829Z,99801.00
2022-11-07T18:43:51.222Z,99801.56
2022-11-07T18:46:18.981Z,99800.38
2022-11-07T18:48:47.507Z,99793.16
2022-11-07T18:51:25.505Z,99787.47
2022-11-07T18:53:56.002Z,99801.72
2022-11-07T18:56:26.791Z,99801.72
2022-11-07T18:58:55.569Z,99789.56
2022-11-07T19:01:29.035Z,99795.38
2022-11-07T19:04:04.445Z,99796.44
2022-11-07T19:06:33.107Z,99793.25
2022-11-07T19:09:00.524Z,99795.88
2022-11-07T19:11:30.649Z,99796.09
2022-11-07T19:14:01.740Z,99785.44
2022-11-07T19:16:33.169Z,99794.03
2022-11-07T19:19:12.387Z,99788.00
2022-11-07T19:21:43.591Z,99799.28
2022-11-07T19:24:10.870Z,99791.84
2022-11-07T19:26:37.790Z,99804.13
2022-11-07T19:29:05.492Z,99804.94
2022-11-07T19:31:34.962Z,99800.66
2022-11-07T19:34:03.175Z,99803.38
2022-11-07T19:36:31.627Z,99804.66
2022-11-07T19:38:58.615Z,99800.31
2022-11-07T19:41:26.816Z,99801.72
2022-11-07T19:43:53.914Z,99809.19
2022-11-07T19:46:22.844Z,99800.66
2022-11-07T19:48:51.791Z,99808.34
2022-11-07T19:51:22.621Z,99801.25
2022-11-07T19:53:58.875Z,99797.13
2022-11-07T19:56:29.758Z,99799.22
2022-11-07T19:59:07.549Z,99803.81
2022-11-07T20:02:25.835Z,99808.03
2022-11-07T20:04:53.572Z,99807.66
2022-11-07T20:07:20.612Z,99801.63
2022-11-07T20:13:57.402Z,99806.09
2022-11-07T20:16:35.277Z,99797.78
2022-11-07T20:19:04.230Z,99799.53
2022-11-07T20:21:31.422Z,99802.91
2022-11-07T20:23:59.694Z,99806.06
2022-11-07T20:26:29.806Z,99812.16
2022-11-07T21:00:24.213Z,99831.56
2022-11-07T21:02:51.602Z,99821.34
2022-11-07T21:05:18.796Z,99829.06
2022-11-07T21:08:01.822Z,99836.13
2022-11-07T21:10:28.978Z,99840.69
2022-11-07T21:12:56.258Z,99837.34
2022-11-07T21:15:28.306Z,99836.25
